Time;durP1;ratioP1;P1;durP2;ratioP2;P2;SDS_P1;SDS_P2;PMS_P1;PMS_P2;Temp;Humidity;BMP_temperature;BMP_pressure;BME280_temperature;BME280_humidity;BME280_pressure;Samples;Min_cycle;Max_cycle;Signal;HPM_P1;HPM_P2
2021/05/11 00:01:44;;;;;;;22.88;2.22;;;8.10;99.90;;;;;;6214840;23;20016;-88
2021/05/11 00:04:10;;;;;;;18.38;3.67;;;8.10;99.90;;;;;;6188374;23;20459;-88
2021/05/11 00:06:36;;;;;;;10.93;2.13;;;8.10;99.90;;;;;;6214792;23;20004;-87
2021/05/11 00:09:05;;;;;;;12.27;1.80;;;8.10;99.90;;;;;;6188520;23;20398;-91
2021/05/11 00:11:35;;;;;;;14.80;2.00;;;8.10;99.90;;;;;;6214813;23;20459;-88
2021/05/11 00:14:05;;;;;;;15.02;2.10;;;8.00;99.90;;;;;;6188036;23;20016;-87
2021/05/11 00:16:30;;;;;;;19.88;3.38;;;8.00;99.90;;;;;;6188394;23;20161;-87
2021/05/11 00:18:57;;;;;;;13.07;2.10;;;7.90;99.90;;;;;;6188608;23;20036;-89
2021/05/11 00:21:29;;;;;;;13.02;2.10;;;7.90;99.90;;;;;;6188116;23;20051;-89
2021/05/11 00:23:55;;;;;;;10.95;2.08;;;7.90;99.90;;;;;;6188133;23;20329;-89
2021/05/11 00:26:20;;;;;;;12.85;2.50;;;7.80;99.90;;;;;;6188477;23;20012;-90
2021/05/11 00:28:46;;;;;;;14.73;2.50;;;7.80;99.90;;;;;;6188835;23;20028;-89
2021/05/11 00:31:12;;;;;;;14.57;2.22;;;7.80;99.90;;;;;;6215004;23;20328;-90
2021/05/11 00:33:39;;;;;;;15.68;3.05;;;7.80;99.90;;;;;;6187266;23;20103;-88
2021/05/11 00:36:05;;;;;;;15.18;2.33;;;7.80;99.90;;;;;;6212760;23;20355;-89
2021/05/11 00:38:31;;;;;;;7.70;1.92;;;7.80;99.90;;;;;;6187364;23;20087;-89
2021/05/11 00:40:56;;;;;;;15.32;2.53;;;7.80;99.90;;;;;;6187886;23;20036;-89
2021/05/11 00:43:23;;;;;;;17.48;2.83;;;7.70;99.90;;;;;;6187187;23;20080;-90
2021/05/11 00:45:48;;;;;;;13.35;2.58;;;7.70;99.90;;;;;;6187193;23;20012;-91
2021/05/11 00:48:17;;;;;;;21.17;3.72;;;7.70;99.90;;;;;;6182591;23;20340;-90
2021/05/11 00:50:45;;;;;;;16.52;2.42;;;7.70;99.90;;;;;;6183471;23;20184;-91
2021/05/11 00:53:11;;;;;;;11.85;2.20;;;7.60;99.90;;;;;;6184518;23;20088;-89
2021/05/11 00:55:38;;;;;;;15.98;2.50;;;7.60;99.90;;;;;;6184571;23;20478;-89
2021/05/11 00:58:05;;;;;;;13.30;2.20;;;7.60;99.90;;;;;;6184294;23;20001;-89
2021/05/11 01:00:31;;;;;;;15.65;2.42;;;7.60;99.90;;;;;;6185574;23;20005;-90
2021/05/11 01:02:56;;;;;;;17.55;3.10;;;7.60;99.90;;;;;;6184604;23;20059;-89
2021/05/11 01:05:22;;;;;;;12.05;2.05;;;7.60;99.90;;;;;;6184907;23;20005;-89
2021/05/11 01:07:48;;;;;;;13.98;2.22;;;7.60;99.90;;;;;;6184981;23;20452;-89
2021/05/11 01:10:14;;;;;;;12.10;2.30;;;7.60;99.90;;;;;;6185093;23;20004;-89
2021/05/11 01:12:40;;;;;;;14.80;3.28;;;7.50;99.90;;;;;;6184532;23;20060;-89
2021/05/11 01:15:06;;;;;;;9.68;2.28;;;7.50;99.90;;;;;;6185345;23;20012;-88
2021/05/11 01:17:35;;;;;;;16.48;2.50;;;7.50;99.90;;;;;;6185826;23;20017;-89
2021/05/11 01:20:04;;;;;;;14.90;2.47;;;7.50;99.90;;;;;;6187147;23;20024;-88
2021/05/11 01:25:11;;;;;;;8.18;1.58;;;7.40;99.90;;;;;;6196845;23;20345;-91
2021/05/11 01:27:49;;;;;;;11.10;2.05;;;7.40;99.90;;;;;;6160375;23;20017;-89
2021/05/11 01:49:59;;;;;;;14.38;2.30;;;7.30;99.90;;;;;;6216032;23;20040;-89
2021/05/11 01:53:07;;;;;;;15.35;2.45;;;7.20;99.90;;;;;;6215329;23;20005;-88
2021/05/11 02:22:44;;;;;;;9.18;2.60;;;7.00;99.90;;;;;;6216222;23;20016;-89
2021/05/11 02:25:12;;;;;;;8.02;2.10;;;6.90;99.90;;;;;;6189676;23;20451;-89
2021/05/11 02:27:40;;;;;;;13.23;2.17;;;6.90;99.90;;;;;;6189369;23;20011;-89
2021/05/11 02:30:08;;;;;;;12.95;2.78;;;6.90;99.90;;;;;;6189135;23;20417;-89
2021/05/11 02:32:38;;;;;;;23.90;3.80;;;6.80;99.90;;;;;;6214354;23;20009;-89
2021/05/11 02:35:05;;;;;;;11.93;2.22;;;6.80;99.90;;;;;;6189064;23;20016;-88
2021/05/11 02:37:34;;;;;;;11.02;2.33;;;6.90;99.90;;;;;;6189148;23;20005;-89
2021/05/11 02:40:00;;;;;;;10.15;2.20;;;6.80;99.90;;;;;;6189327;23;20008;-88
2021/05/11 02:42:26;;;;;;;11.45;2.78;;;6.80;99.90;;;;;;6189525;23;20000;-89
2021/05/11 02:44:55;;;;;;;14.48;2.72;;;6.80;99.90;;;;;;6189111;23;20499;-89
2021/05/11 02:47:22;;;;;;;9.30;2.10;;;6.70;99.90;;;;;;6214203;23;20066;-89
2021/05/11 02:49:49;;;;;;;11.20;2.78;;;6.70;99.90;;;;;;6189474;23;20088;-89
2021/05/11 02:52:15;;;;;;;18.25;3.10;;;6.70;99.90;;;;;;6189296;23;20013;-88
2021/05/11 02:54:44;;;;;;;15.63;3.42;;;6.70;99.90;;;;;;6190053;23;20100;-88
2021/05/11 02:57:10;;;;;;;10.07;3.03;;;6.70;99.90;;;;;;6168810;23;20009;-89
2021/05/11 02:59:36;;;;;;;8.90;1.95;;;6.60;99.90;;;;;;6194818;23;20087;-89
2021/05/11 03:02:02;;;;;;;9.00;2.10;;;6.60;99.90;;;;;;6195918;23;19997;-88
2021/05/11 03:04:31;;;;;;;10.63;2.25;;;6.60;99.90;;;;;;6196021;23;20387;-89
2021/05/11 03:06:58;;;;;;;15.05;3.13;;;6.50;99.90;;;;;;6197057;23;20013;-88
2021/05/11 03:09:28;;;;;;;21.17;3.67;;;6.50;99.90;;;;;;6195035;23;20004;-89
2021/05/11 03:11:58;;;;;;;12.65;2.55;;;6.50;99.90;;;;;;6194711;23;20008;-89
2021/05/11 03:14:24;;;;;;;12.50;2.58;;;6.50;99.90;;;;;;6194079;23;20015;-88
2021/05/11 03:16:54;;;;;;;7.75;1.80;;;6.50;99.90;;;;;;6215267;23;20030;-90
2021/05/11 03:19:25;;;;;;;12.68;2.92;;;6.50;99.90;;;;;;6194532;23;20000;-89
2021/05/11 03:21:57;;;;;;;10.35;2.08;;;6.50;99.90;;;;;;6193559;23;20039;-88
2021/05/11 03:24:35;;;;;;;13.30;2.80;;;6.50;99.90;;;;;;6220163;23;20064;-89
2021/05/11 03:27:00;;;;;;;8.82;2.97;;;6.50;99.90;;;;;;6192030;23;20004;-88
2021/05/11 03:29:29;;;;;;;17.23;3.85;;;6.50;99.90;;;;;;6190264;23;20024;-88
2021/05/11 03:31:55;;;;;;;18.05;4.03;;;6.50;99.90;;;;;;6192076;23;20032;-88
2021/05/11 03:34:23;;;;;;;17.42;5.18;;;6.50;99.90;;;;;;6192219;23;20440;-88
2021/05/11 03:36:49;;;;;;;22.50;5.85;;;6.50;99.90;;;;;;6219205;23;20005;-88
2021/05/11 03:39:15;;;;;;;18.40;5.43;;;6.50;99.90;;;;;;6193790;23;20008;-89
2021/05/11 03:41:51;;;;;;;27.65;6.90;;;6.50;99.90;;;;;;6192990;23;20135;-89
2021/05/11 03:44:20;;;;;;;15.90;3.90;;;6.60;99.90;;;;;;6217942;23;20009;-89
2021/05/11 03:46:46;;;;;;;20.98;6.15;;;6.60;99.90;;;;;;6192475;23;20016;-88
2021/05/11 03:49:17;;;;;;;15.25;5.15;;;6.70;99.90;;;;;;6193234;23;20001;-88
2021/05/11 03:51:46;;;;;;;13.32;4.28;;;6.70;99.90;;;;;;6193865;23;20113;-89
2021/05/11 03:54:15;;;;;;;24.60;6.57;;;6.70;99.90;;;;;;6192860;23;20044;-89
2021/05/11 03:56:42;;;;;;;23.08;7.38;;;6.70;99.90;;;;;;6218846;23;20035;-89
2021/05/11 03:59:08;;;;;;;17.88;5.70;;;6.70;99.90;;;;;;6193544;23;20020;-89
2021/05/11 04:01:36;;;;;;;17.30;7.40;;;6.80;99.90;;;;;;6192723;23;20138;-88
2021/05/11 04:04:05;;;;;;;17.73;7.43;;;6.80;99.90;;;;;;6191981;23;20083;-89
2021/05/11 04:06:31;;;;;;;29.90;8.70;;;6.80;99.90;;;;;;6192494;23;20040;-87
2021/05/11 04:09:05;;;;;;;19.98;6.80;;;6.80;99.90;;;;;;6192216;23;20467;-89
2021/05/11 04:16:38;;;;;;;24.60;7.05;;;6.90;99.90;;;;;;6217726;23;20015;-88
2021/05/11 04:19:06;;;;;;;19.85;6.57;;;6.90;99.90;;;;;;6189805;23;20009;-88
2021/05/11 04:21:32;;;;;;;17.88;7.28;;;6.90;99.90;;;;;;6191094;23;20001;-86
2021/05/11 04:23:58;;;;;;;29.63;8.07;;;7.00;99.90;;;;;;6191182;23;20016;-89
2021/05/11 04:26:27;;;;;;;23.30;7.40;;;7.00;99.90;;;;;;6193082;23;20070;-91
2021/05/11 04:28:56;;;;;;;20.40;7.15;;;7.00;99.90;;;;;;6193067;23;20016;-89
2021/05/11 04:31:22;;;;;;;23.58;6.43;;;7.00;99.90;;;;;;6193339;23;20092;-90
2021/05/11 04:33:48;;;;;;;15.63;6.72;;;7.10;99.90;;;;;;6192632;23;20051;-88
2021/05/11 04:36:18;;;;;;;24.92;7.47;;;7.10;99.90;;;;;;6192821;23;20005;-89
2021/05/11 04:38:45;;;;;;;20.85;6.25;;;7.10;99.90;;;;;;6191721;23;20020;-88
2021/05/11 04:41:10;;;;;;;20.45;9.18;;;7.20;99.90;;;;;;6191740;23;20012;-87
2021/05/11 04:43:39;;;;;;;23.63;7.38;;;7.20;99.90;;;;;;6191823;23;20005;-88
2021/05/11 04:48:47;;;;;;;10.85;4.85;;;7.20;99.90;;;;;;6229057;23;20012;-89
2021/05/11 04:51:20;;;;;;;21.48;5.10;;;7.30;99.90;;;;;;6192579;23;20058;-89
2021/05/11 04:53:49;;;;;;;13.13;5.10;;;7.30;99.90;;;;;;6192715;23;20020;-89
2021/05/11 04:56:15;;;;;;;14.52;5.28;;;7.30;99.90;;;;;;6199466;23;20012;-88
2021/05/11 04:58:44;;;;;;;17.95;5.50;;;7.30;99.90;;;;;;6202795;23;20000;-89
2021/05/11 05:01:13;;;;;;;16.50;5.45;;;7.30;99.90;;;;;;6201895;23;20039;-87
2021/05/11 05:03:53;;;;;;;20.58;5.82;;;7.30;99.90;;;;;;6227703;23;20005;-88
2021/05/11 05:06:20;;;;;;;20.95;5.25;;;7.30;99.90;;;;;;6200976;23;20000;-88
2021/05/11 05:08:52;;;;;;;23.17;7.07;;;7.30;99.90;;;;;;6227629;23;20143;-88
2021/05/11 05:11:18;;;;;;;23.88;5.25;;;7.30;99.90;;;;;;6219886;23;20068;-89
2021/05/11 05:13:44;;;;;;;17.48;4.82;;;7.30;99.90;;;;;;6191198;23;20047;-88
2021/05/11 05:16:10;;;;;;;21.40;5.47;;;7.30;99.90;;;;;;6217826;23;20082;-89
2021/05/11 05:18:39;;;;;;;15.48;4.97;;;7.40;99.90;;;;;;6191828;23;20011;-88
2021/05/11 05:21:09;;;;;;;17.40;3.60;;;7.40;99.90;;;;;;6191959;23;20000;-89
2021/05/11 05:23:44;;;;;;;21.98;5.00;;;7.40;99.90;;;;;;6218193;23;20432;-89
2021/05/11 05:26:13;;;;;;;14.05;4.47;;;7.40;99.90;;;;;;6197539;23;20012;-88
2021/05/11 05:28:43;;;;;;;14.13;4.05;;;7.40;99.90;;;;;;6224564;23;20005;-88
2021/05/11 05:31:15;;;;;;;21.65;4.90;;;7.40;99.90;;;;;;6200814;23;20012;-89
2021/05/11 05:33:46;;;;;;;19.10;4.65;;;7.40;99.90;;;;;;6226046;23;20008;-89
2021/05/11 05:36:16;;;;;;;14.77;4.65;;;7.50;99.90;;;;;;6199420;23;20012;-88
2021/05/11 05:38:45;;;;;;;26.52;5.75;;;7.50;99.90;;;;;;6200594;23;20004;-88
2021/05/11 05:41:21;;;;;;;14.15;5.45;;;7.50;99.90;;;;;;6195882;23;20009;-88
2021/05/11 05:43:50;;;;;;;21.10;5.53;;;7.60;99.90;;;;;;6191023;23;20351;-87
2021/05/11 05:46:16;;;;;;;18.08;5.10;;;7.60;99.90;;;;;;6190636;23;20396;-88
2021/05/11 05:48:43;;;;;;;17.25;4.55;;;7.60;99.90;;;;;;6191185;23;20012;-89
2021/05/11 05:51:10;;;;;;;18.92;4.95;;;7.70;99.90;;;;;;6217808;23;20016;-90
2021/05/11 05:53:43;;;;;;;21.20;6.22;;;7.70;99.90;;;;;;6189090;23;20012;-89
2021/05/11 05:56:13;;;;;;;24.80;5.07;;;7.70;99.90;;;;;;6217264;23;20332;-89
2021/05/11 05:58:42;;;;;;;19.33;4.93;;;7.70;99.90;;;;;;6190097;23;20007;-90
2021/05/11 06:01:10;;;;;;;20.77;4.28;;;7.80;99.90;;;;;;6190357;23;20009;-89
2021/05/11 06:06:09;;;;;;;14.20;3.72;;;7.80;99.90;;;;;;6227316;23;20522;-88
2021/05/11 06:08:38;;;;;;;20.02;4.65;;;7.80;99.90;;;;;;6190627;23;20054;-89
2021/05/11 06:13:47;;;;;;;17.38;4.10;;;7.80;99.90;;;;;;6227516;23;20083;-88
2021/05/11 06:18:57;;;;;;;16.50;4.25;;;7.80;99.90;;;;;;6217036;23;20035;-89
2021/05/11 06:21:28;;;;;;;14.88;4.53;;;7.90;99.90;;;;;;6190146;23;20013;-90
2021/05/11 06:23:54;;;;;;;21.35;4.78;;;7.90;99.90;;;;;;6190386;23;20066;-88
2021/05/11 06:26:20;;;;;;;19.02;3.92;;;8.00;99.90;;;;;;6190741;23;20427;-89
2021/05/11 06:28:46;;;;;;;22.23;4.70;;;8.00;99.90;;;;;;6189819;23;20078;-89
2021/05/11 06:31:13;;;;;;;17.83;4.90;;;8.10;99.90;;;;;;6165931;23;20012;-89
2021/05/11 06:33:43;;;;;;;21.15;5.15;;;8.10;99.90;;;;;;6190916;23;20004;-89
2021/05/11 06:36:33;;;;;;;17.85;5.57;;;8.20;99.90;;;;;;6190833;23;20005;-90
2021/05/11 06:39:01;;;;;;;16.48;4.60;;;8.20;99.90;;;;;;6190543;23;20424;-91
2021/05/11 06:41:27;;;;;;;22.65;6.20;;;8.30;99.90;;;;;;6216497;23;20087;-90
2021/05/11 06:44:02;;;;;;;19.63;5.15;;;8.30;99.90;;;;;;6190608;23;20008;-90
2021/05/11 06:54:38;;;;;;;19.58;4.72;;;8.50;99.90;;;;;;6192230;23;20043;-91
2021/05/11 06:57:24;;;;;;;15.32;3.75;;;8.50;99.90;;;;;;6213159;23;20004;-89
2021/05/11 06:59:53;;;;;;;13.98;4.05;;;8.50;99.90;;;;;;6191474;23;20073;-89
2021/05/11 07:02:29;;;;;;;22.42;5.38;;;8.60;99.90;;;;;;6190812;23;20440;-88
2021/05/11 07:04:57;;;;;;;18.40;4.35;;;8.50;99.90;;;;;;6189803;23;20009;-89
2021/05/11 07:07:23;;;;;;;18.83;4.97;;;8.60;99.90;;;;;;6188624;23;20080;-89
2021/05/11 07:09:59;;;;;;;15.70;4.65;;;8.60;99.90;;;;;;6189675;23;20008;-89
2021/05/11 07:15:24;;;;;;;25.13;5.10;;;8.60;99.90;;;;;;6222372;23;20027;-89
2021/05/11 07:17:52;;;;;;;19.60;5.60;;;8.60;99.90;;;;;;6195616;23;20005;-88
2021/05/11 07:20:18;;;;;;;23.02;5.63;;;8.60;99.90;;;;;;6198790;23;20363;-89
2021/05/11 07:22:44;;;;;;;13.73;3.47;;;8.50;99.90;;;;;;6199696;23;20009;-90
2021/05/11 07:25:16;;;;;;;12.32;4.47;;;8.60;99.90;;;;;;6200795;23;20068;-88
2021/05/11 07:28:14;;;;;;;33.10;4.85;;;8.60;99.90;;;;;;6193498;23;20092;-90
2021/05/11 07:30:37;;;;;;;23.75;6.15;;;8.60;99.90;;;;;;6216613;23;20003;-91
2021/05/11 07:33:06;;;;;;;32.03;9.82;;;8.70;99.90;;;;;;6190666;23;20013;-90
2021/05/11 07:35:32;;;;;;;22.48;8.85;;;8.70;99.90;;;;;;6191101;23;20017;-90
2021/05/11 07:37:59;;;;;;;27.65;11.93;;;8.70;99.90;;;;;;6190810;23;20011;-90
2021/05/11 07:40:25;;;;;;;25.38;11.05;;;8.70;99.90;;;;;;6191035;23;20004;-91
2021/05/11 07:42:57;;;;;;;25.75;11.48;;;8.80;99.90;;;;;;6200715;23;20087;-91
2021/05/11 07:46:01;;;;;;;22.10;10.85;;;8.80;99.90;;;;;;6202435;23;20307;-92
2021/05/11 07:51:31;;;;;;;31.13;11.10;;;8.80;99.90;;;;;;6229716;23;20036;-91
2021/05/11 08:05:11;;;;;;;24.77;10.18;;;8.90;99.90;;;;;;6216592;23;20011;-92
2021/05/11 08:10:36;;;;;;;27.83;8.57;;;8.80;99.90;;;;;;6217187;23;20340;-91
2021/05/11 08:16:00;;;;;;;21.92;8.13;;;8.90;99.90;;;;;;6217051;23;20023;-92
2021/05/11 08:29:31;;;;;;;26.80;9.27;;;9.20;99.90;;;;;;6216291;23;20023;-91
2021/05/11 08:32:03;;;;;;;29.02;9.75;;;9.30;99.90;;;;;;6189039;23;20009;-92
2021/05/11 08:34:31;;;;;;;29.95;10.95;;;9.40;99.90;;;;;;6198702;23;20019;-92
2021/05/11 08:36:59;;;;;;;25.55;9.73;;;9.50;99.90;;;;;;6193217;23;20004;-93
2021/05/11 08:39:28;;;;;;;24.60;7.85;;;9.60;99.90;;;;;;6198885;23;20001;-92
2021/05/11 08:41:54;;;;;;;26.83;8.45;;;9.70;99.90;;;;;;6175255;23;20041;-92
2021/05/11 08:44:20;;;;;;;31.83;9.50;;;9.80;99.90;;;;;;6198724;23;20068;-92
2021/05/11 08:46:52;;;;;;;22.40;8.65;;;9.90;99.90;;;;;;6199665;23;19996;-91
2021/05/11 08:49:18;;;;;;;28.42;7.78;;;9.90;99.90;;;;;;6202285;23;20443;-92
2021/05/11 08:54:48;;;;;;;26.02;7.57;;;10.10;99.90;;;;;;6200918;23;20015;-93
2021/05/11 09:06:41;;;;;;;26.48;6.10;;;10.70;99.90;;;;;;6217712;23;20395;-93
2021/05/11 09:09:58;;;;;;;22.10;5.30;;;10.70;99.90;;;;;;6190717;23;20032;-93
2021/05/11 09:27:26;;;;;;;15.32;3.20;;;11.80;99.90;;;;;;6219260;23;20231;-91
2021/05/11 09:30:08;;;;;;;7.07;2.15;;;12.10;99.90;;;;;;6223833;23;20032;-91
2021/05/11 09:56:24;;;;;;;8.82;2.38;;;12.80;99.30;;;;;;6229340;23;20020;-94
2021/05/11 10:48:51;;;;;;;11.82;2.10;;;15.20;88.00;;;;;;6216981;23;20020;-93
2021/05/11 10:51:24;;;;;;;14.43;2.10;;;15.30;87.80;;;;;;6196783;23;20095;-93
2021/05/11 10:54:08;;;;;;;5.57;1.70;;;15.30;86.50;;;;;;6192086;23;20000;-91
2021/05/11 10:56:46;;;;;;;7.90;2.10;;;15.30;86.60;;;;;;6190304;23;20019;-94
2021/05/11 10:59:45;;;;;;;8.40;1.60;;;15.20;86.20;;;;;;6198511;23;20335;-92
2021/05/11 11:05:01;;;;;;;8.35;1.80;;;15.10;85.10;;;;;;6233191;23;20021;-91
2021/05/11 11:07:54;;;;;;;8.98;2.92;;;14.90;83.20;;;;;;6150826;23;20080;-92
2021/05/11 11:10:31;;;;;;;7.53;1.80;;;14.80;83.70;;;;;;6175048;23;20005;-92
2021/05/11 11:13:15;;;;;;;8.63;1.50;;;14.70;84.20;;;;;;6168446;23;20032;-92
2021/05/11 11:16:12;;;;;;;12.50;2.22;;;14.60;84.40;;;;;;6224918;23;20436;-91
2021/05/11 11:19:23;;;;;;;10.52;2.03;;;14.50;84.20;;;;;;6198504;23;20001;-92
2021/05/11 11:23:32;;;;;;;12.63;1.88;;;14.40;84.30;;;;;;6200123;23;20005;-92
2021/05/11 11:25:07;;;;;;;13.57;2.90;;;14.30;84.70;;;;;;6231133;23;20012;-93
2021/05/11 11:27:51;;;;;;;6.28;1.65;;;14.20;85.60;;;;;;6228859;23;20032;-92
2021/05/11 11:30:55;;;;;;;15.95;2.40;;;14.20;86.00;;;;;;6206037;23;20000;-91
2021/05/11 11:33:32;;;;;;;11.65;2.30;;;14.30;86.00;;;;;;6167032;23;20012;-92
2021/05/11 11:36:31;;;;;;;10.90;2.35;;;14.50;86.40;;;;;;6210318;23;20095;-92
2021/05/11 11:39:05;;;;;;;14.10;2.22;;;14.80;85.90;;;;;;6209851;23;20036;-92
2021/05/11 11:42:06;;;;;;;10.00;1.85;;;15.20;85.40;;;;;;6210632;23;20027;-93
2021/05/11 11:45:04;;;;;;;10.05;2.30;;;15.40;83.80;;;;;;6236744;23;20000;-93
2021/05/11 11:48:00;;;;;;;8.27;1.80;;;15.50;81.90;;;;;;6142737;23;20194;-91
2021/05/11 11:51:00;;;;;;;10.88;2.40;;;15.50;81.20;;;;;;6118012;23;20073;-91
2021/05/11 11:53:44;;;;;;;;;;;;;;;;;;;;;
2021/05/11 12:00:00;;;;;;;9.43;1.92;;;15.40;80.90;;;;;;5996131;24;20091;-92
2021/05/11 12:03:17;;;;;;;;;;;;;;;;;;;;;
2021/05/11 12:06:09;;;;;;;;;;;;;;;;;;;;;
2021/05/11 12:08:43;;;;;;;7.60;1.52;;;15.80;79.40;;;;;;5996244;24;20050;-93
2021/05/11 12:11:14;;;;;;;5.68;1.58;;;15.90;77.00;;;;;;5972698;24;20487;-92
2021/05/11 12:14:07;;;;;;;6.50;1.95;;;15.80;77.10;;;;;;5970819;24;20476;-93
2021/05/11 12:17:00;;;;;;;9.43;2.35;;;15.80;77.50;;;;;;5940528;24;20047;-93
2021/05/11 12:19:36;;;;;;;9.32;1.80;;;15.60;77.60;;;;;;5964561;24;20041;-92
2021/05/11 12:22:17;;;;;;;7.80;1.63;;;15.40;77.50;;;;;;5995338;24;20012;-93
2021/05/11 12:25:22;;;;;;;11.98;1.63;;;15.20;78.00;;;;;;5994167;24;20008;-93
2021/05/11 12:28:04;;;;;;;7.63;1.80;;;15.10;78.50;;;;;;5968337;24;20027;-93
2021/05/11 12:31:04;;;;;;;11.35;3.13;;;15.00;79.20;;;;;;6011658;23;20000;-92
2021/05/11 12:33:38;;;;;;;8.73;1.30;;;14.90;79.30;;;;;;6023998;23;20038;-94
2021/05/11 12:36:28;;;;;;;8.57;2.17;;;14.80;79.60;;;;;;6085332;23;20014;-93
2021/05/11 12:42:20;;;;;;;7.60;1.35;;;14.50;81.30;;;;;;6109548;23;20029;-94
2021/05/11 12:45:16;;;;;;;10.73;1.77;;;14.10;84.70;;;;;;6087130;23;20017;-94
2021/05/11 12:47:50;;;;;;;6.28;1.30;;;13.60;89.30;;;;;;6116165;23;20005;-95
2021/05/11 12:50:34;;;;;;;10.98;2.10;;;13.10;91.20;;;;;;6112606;23;20046;-94
2021/05/11 12:53:35;;;;;;;6.40;1.25;;;12.90;92.60;;;;;;6112734;23;20006;-91
2021/05/11 13:16:11;;;;;;;6.03;1.52;;;13.20;97.30;;;;;;6200376;23;20081;-92
2021/05/11 13:21:38;;;;;;;5.45;1.40;;;13.00;98.10;;;;;;6179351;23;20024;-92
2021/05/11 13:29:59;;;;;;;;;;;;;;;;;;;;;
2021/05/11 13:35:27;;;;;;;2.25;1.10;;;11.80;99.90;;;;;;6138137;23;20022;-91
2021/05/11 13:38:42;;;;;;;4.35;1.20;;;11.60;99.90;;;;;;6113894;23;20012;-94
2021/05/11 13:42:08;;;;;;;6.68;1.90;;;11.30;99.90;;;;;;6048774;23;20027;-94
2021/05/11 13:45:25;;;;;;;4.28;1.40;;;11.10;99.90;;;;;;6022346;23;20012;-93
2021/05/11 13:51:45;;;;;;;2.08;1.00;;;10.80;99.90;;;;;;5939011;24;20013;-92
2021/05/11 14:04:10;;;;;;;3.13;1.20;;;10.70;99.90;;;;;;5857440;24;20055;-95
2021/05/11 14:06:36;;;;;;;3.92;0.90;;;10.60;99.90;;;;;;5858541;24;20072;-93
2021/05/11 14:09:32;;;;;;;1.83;0.80;;;10.70;99.90;;;;;;5856907;24;20014;-92
2021/05/11 14:12:03;;;;;;;5.05;1.10;;;10.80;99.90;;;;;;5825895;24;20019;-92
2021/05/11 14:14:38;;;;;;;2.90;1.10;;;10.80;99.90;;;;;;5836625;24;20019;-92
2021/05/11 14:17:25;;;;;;;3.78;0.90;;;10.80;99.90;;;;;;5860524;24;20007;-94
2021/05/11 14:19:53;;;;;;;2.95;1.00;;;10.70;99.90;;;;;;5858938;24;20026;-92
2021/05/11 14:22:36;;;;;;;1.30;0.90;;;10.70;99.90;;;;;;5897078;24;20005;-93
2021/05/11 14:28:10;;;;;;;3.85;1.10;;;10.60;99.90;;;;;;6032636;23;20230;-92
2021/05/11 14:31:17;;;;;;;3.03;0.90;;;10.60;99.90;;;;;;6086009;23;20006;-93
2021/05/11 14:34:13;;;;;;;;;;;;;;;;;;;;;
2021/05/11 14:36:40;;;;;;;7.53;1.27;;;10.80;99.90;;;;;;6056239;23;20026;-92
2021/05/11 14:39:31;;;;;;;5.38;1.20;;;10.80;99.90;;;;;;6106468;23;20014;-91
2021/05/11 14:41:57;;;;;;;2.40;1.25;;;10.90;99.90;;;;;;6175669;23;20005;-94
2021/05/11 14:44:52;;;;;;;2.08;0.82;;;11.00;99.90;;;;;;6201504;23;20005;-93
2021/05/11 14:47:29;;;;;;;1.83;0.80;;;11.00;99.90;;;;;;6200160;23;19997;-92
2021/05/11 14:50:00;;;;;;;4.95;0.88;;;11.20;99.90;;;;;;6199068;23;20086;-92
2021/05/11 14:52:29;;;;;;;1.65;0.57;;;11.20;99.90;;;;;;6175452;23;20040;-92
2021/05/11 14:55:09;;;;;;;2.88;1.00;;;11.40;99.90;;;;;;6174476;23;20024;-91
2021/05/11 14:57:40;;;;;;;1.60;1.08;;;11.60;99.90;;;;;;6198597;23;20055;-92
2021/05/11 15:00:12;;;;;;;2.78;1.10;;;11.70;99.90;;;;;;6198038;23;20016;-94
2021/05/11 15:03:02;;;;;;;3.50;1.20;;;11.90;99.90;;;;;;6173822;23;20005;-93
2021/05/11 15:05:54;;;;;;;;;;;;;;;;;;;;;
2021/05/11 15:08:20;;;;;;;1.77;0.75;;;12.20;99.90;;;;;;6197542;23;20008;-94
2021/05/11 15:10:58;;;;;;;3.40;0.82;;;12.50;99.90;;;;;;6201395;23;20005;-96
